createdAt,value
2023-04-12T00:00:06.826Z,1184.00
2023-04-12T00:01:06.882Z,1160.00
2023-04-12T00:02:06.982Z,1164.00
2023-04-12T00:03:07.006Z,1157.00
2023-04-12T00:04:07.154Z,1160.00
2023-04-12T00:05:07.143Z,1175.00
2023-04-12T00:06:07.070Z,1170.00
2023-04-12T00:07:07.151Z,1145.00
2023-04-12T00:08:07.163Z,1114.00
2023-04-12T00:09:07.200Z,1118.00
2023-04-12T00:10:07.253Z,1123.00
2023-04-12T00:11:07.293Z,1129.00
2023-04-12T00:12:07.327Z,1156.00
2023-04-12T00:13:07.372Z,1149.00
2023-04-12T00:14:07.417Z,1120.00
2023-04-12T00:15:08.251Z,1144.00
2023-04-12T00:16:07.569Z,1124.00
2023-04-12T00:17:07.572Z,1129.00
2023-04-12T00:18:07.569Z,1101.00
2023-04-12T00:19:07.599Z,1157.00
2023-04-12T00:20:07.685Z,1127.00
2023-04-12T00:21:07.688Z,1107.00
2023-04-12T00:22:07.736Z,1118.00
2023-04-12T00:23:07.781Z,1092.00
2023-04-12T00:24:07.816Z,1103.00
2023-04-12T00:25:07.878Z,1099.00
2023-04-12T00:26:08.015Z,1138.00
2023-04-12T00:27:07.970Z,1112.00
2023-04-12T00:28:07.991Z,1112.00
2023-04-12T00:29:08.039Z,1088.00
2023-04-12T00:30:08.097Z,1090.00
2023-04-12T00:31:08.133Z,1108.00
2023-04-12T00:32:08.164Z,1108.00
2023-04-12T00:33:08.185Z,1121.00
2023-04-12T00:34:08.231Z,1131.00
2023-04-12T00:35:08.311Z,1270.00
2023-04-12T00:36:08.408Z,1379.00
2023-04-12T00:37:08.372Z,1293.00
2023-04-12T00:38:08.419Z,1315.00
2023-04-12T00:39:08.460Z,1286.00
2023-04-12T00:40:08.514Z,1265.00
2023-04-12T00:41:08.557Z,1291.00
2023-04-12T00:42:08.596Z,1270.00
2023-04-12T00:43:08.636Z,1245.00
2023-04-12T00:44:08.682Z,1238.00
2023-04-12T00:45:08.728Z,1259.00
2023-04-12T00:46:08.800Z,1249.00
2023-04-12T00:47:08.975Z,1295.00
2023-04-12T00:48:08.946Z,1318.00
2023-04-12T00:49:08.907Z,1317.00
2023-04-12T00:50:08.933Z,1287.00
2023-04-12T00:51:08.973Z,1315.00
2023-04-12T00:52:09.036Z,1352.00
2023-04-12T00:53:09.071Z,1337.00
2023-04-12T00:54:09.133Z,1263.00
2023-04-12T00:55:09.142Z,1280.00
2023-04-12T00:56:09.208Z,1227.00
2023-04-12T00:57:09.232Z,1253.00
2023-04-12T00:58:09.274Z,1274.00
2023-04-12T00:59:09.349Z,1261.00
2023-04-12T01:00:09.383Z,1289.00
2023-04-12T01:01:09.474Z,1278.00
2023-04-12T01:02:09.628Z,1307.00
2023-04-12T01:03:09.632Z,1269.00
2023-04-12T01:04:09.622Z,1267.00
2023-04-12T01:05:09.596Z,1263.00
2023-04-12T01:06:09.752Z,1282.00
2023-04-12T01:07:09.689Z,1238.00
2023-04-12T01:08:09.715Z,1234.00
2023-04-12T01:09:09.767Z,1244.00
2023-04-12T01:10:09.892Z,1303.00
2023-04-12T01:11:09.862Z,1270.00
2023-04-12T01:12:09.885Z,1268.00
2023-04-12T01:13:09.951Z,1261.00
2023-04-12T01:14:09.988Z,1247.00
2023-04-12T01:15:10.039Z,1269.00
2023-04-12T01:16:10.135Z,1293.00
2023-04-12T01:17:10.116Z,1287.00
2023-04-12T01:18:10.169Z,1298.00
2023-04-12T01:19:10.216Z,1210.00
2023-04-12T01:20:10.256Z,1231.00
2023-04-12T01:21:10.341Z,1210.00
2023-04-12T01:22:10.345Z,1254.00
2023-04-12T01:23:10.381Z,1267.00
2023-04-12T01:24:10.425Z,1222.00
2023-04-12T01:25:10.463Z,1262.00
2023-04-12T01:26:10.570Z,1218.00
2023-04-12T01:27:10.570Z,1205.00
2023-04-12T01:28:10.587Z,1165.00
2023-04-12T01:29:10.611Z,1180.00
2023-04-12T01:30:10.684Z,1159.00
2023-04-12T01:31:10.758Z,1195.00
2023-04-12T01:32:10.833Z,1161.00
2023-04-12T01:33:10.809Z,1154.00
2023-04-12T01:34:10.866Z,1205.00
2023-04-12T01:35:10.933Z,1147.00
2023-04-12T01:36:10.990Z,1179.00
2023-04-12T01:37:11.011Z,1159.00
2023-04-12T01:38:11.038Z,1116.00
2023-04-12T01:39:11.089Z,1124.00
2023-04-12T01:40:11.168Z,1142.00
2023-04-12T01:41:11.188Z,1141.00
2023-04-12T01:42:11.219Z,1112.00
2023-04-12T01:43:11.265Z,1169.00
2023-04-12T01:44:11.324Z,1129.00
2023-04-12T01:45:11.374Z,1100.00
2023-04-12T01:46:11.519Z,1137.00
2023-04-12T01:47:11.451Z,1138.00
2023-04-12T01:48:11.556Z,1177.00
2023-04-12T01:49:11.530Z,1171.00
2023-04-12T01:50:11.585Z,1175.00
2023-04-12T01:51:11.653Z,1164.00
2023-04-12T01:52:11.688Z,1173.00
2023-04-12T01:53:11.721Z,1185.00
2023-04-12T01:54:11.797Z,1204.00
2023-04-12T01:55:11.939Z,1213.00
2023-04-12T01:56:11.895Z,1207.00
2023-04-12T01:57:11.944Z,1229.00
2023-04-12T01:58:11.950Z,1225.00
2023-04-12T01:59:12.017Z,1222.00
2023-04-12T02:00:12.060Z,1264.00
2023-04-12T02:01:12.170Z,1245.00
2023-04-12T02:02:12.242Z,1248.00
2023-04-12T02:03:12.485Z,1203.00
2023-04-12T02:04:12.285Z,1282.00
2023-04-12T02:05:12.278Z,1237.00
2023-04-12T02:06:12.327Z,1253.00
2023-04-12T02:07:12.379Z,1231.00
2023-04-12T02:08:12.439Z,1260.00
2023-04-12T02:09:12.480Z,1212.00
2023-04-12T02:10:12.529Z,1237.00
2023-04-12T02:11:12.582Z,1227.00
2023-04-12T02:12:12.645Z,1259.00
2023-04-12T02:13:12.668Z,1243.00
2023-04-12T02:14:12.719Z,1230.00
2023-04-12T02:15:12.750Z,1258.00
2023-04-12T02:16:12.854Z,1252.00
2023-04-12T02:17:12.933Z,1243.00
2023-04-12T02:18:12.940Z,1233.00
2023-04-12T02:19:12.966Z,1217.00
2023-04-12T02:20:13.002Z,1240.00
2023-04-12T02:21:13.037Z,1233.00
2023-04-12T02:22:13.090Z,1225.00
2023-04-12T02:23:13.143Z,1266.00
2023-04-12T02:24:13.179Z,1254.00
2023-04-12T02:25:13.233Z,1261.00
2023-04-12T02:26:13.318Z,1313.00
2023-04-12T02:27:13.332Z,1277.00
2023-04-12T02:28:13.379Z,1305.00
2023-04-12T02:29:13.438Z,1314.00
2023-04-12T02:30:13.488Z,1280.00
2023-04-12T02:31:13.577Z,1305.00
2023-04-12T02:32:13.607Z,1313.00
2023-04-12T02:33:13.657Z,1275.00
2023-04-12T02:34:13.706Z,1260.00
2023-04-12T02:35:13.751Z,1316.00
2023-04-12T02:36:13.792Z,1327.00
2023-04-12T02:37:13.849Z,1313.00
2023-04-12T02:38:13.885Z,1292.00
2023-04-12T02:39:14.065Z,1288.00
2023-04-12T02:40:13.982Z,1262.00
2023-04-12T02:41:14.022Z,1286.00
2023-04-12T02:42:14.079Z,1289.00
2023-04-12T02:43:14.128Z,1310.00
2023-04-12T02:44:14.192Z,1271.00
2023-04-12T02:45:14.212Z,1296.00
2023-04-12T02:46:14.303Z,1286.00
2023-04-12T02:47:14.327Z,1296.00
2023-04-12T02:48:14.357Z,1300.00
2023-04-12T02:49:14.406Z,1300.00
2023-04-12T02:50:14.465Z,1234.00
2023-04-12T02:51:14.500Z,1267.00
2023-04-12T02:52:14.543Z,1242.00
2023-04-12T02:53:14.589Z,1276.00
2023-04-12T02:54:14.636Z,1299.00
2023-04-12T02:55:14.726Z,1293.00
2023-04-12T02:56:14.759Z,1300.00
2023-04-12T02:57:14.809Z,1283.00
2023-04-12T02:58:14.840Z,1285.00
2023-04-12T02:59:14.886Z,1293.00
2023-04-12T03:00:14.937Z,1280.00
2023-04-12T03:01:15.099Z,1298.00
2023-04-12T03:02:15.116Z,1271.00
2023-04-12T03:03:15.169Z,1244.00
2023-04-12T03:04:15.198Z,1276.00
2023-04-12T03:05:15.226Z,1271.00
2023-04-12T03:06:15.233Z,1278.00
2023-04-12T03:07:15.280Z,1287.00
2023-04-12T03:08:15.349Z,1278.00
2023-04-12T03:09:15.407Z,1255.00
2023-04-12T03:10:15.444Z,1307.00
2023-04-12T03:11:15.501Z,1293.00
2023-04-12T03:12:15.562Z,1274.00
2023-04-12T03:13:15.609Z,1311.00
2023-04-12T03:14:15.654Z,1261.00
2023-04-12T03:15:15.704Z,1248.00
2023-04-12T03:16:15.954Z,1261.00
2023-04-12T03:17:15.813Z,1237.00
2023-04-12T03:18:15.895Z,1279.00
2023-04-12T03:19:15.926Z,1253.00
2023-04-12T03:20:15.960Z,1241.00
2023-04-12T03:21:16.040Z,1240.00
2023-04-12T03:22:16.078Z,1232.00
2023-04-12T03:23:16.218Z,1204.00
2023-04-12T03:24:16.176Z,1221.00
2023-04-12T03:25:16.219Z,1236.00
2023-04-12T03:26:16.287Z,1224.00
2023-04-12T03:27:16.339Z,1239.00
2023-04-12T03:28:16.379Z,1219.00
2023-04-12T03:29:16.430Z,1227.00
2023-04-12T03:30:16.482Z,1210.00
2023-04-12T03:31:16.606Z,1224.00
2023-04-12T03:32:16.603Z,1233.00
2023-04-12T03:33:16.637Z,1284.00
2023-04-12T03:34:16.706Z,1295.00
2023-04-12T03:35:16.842Z,1279.00
2023-04-12T03:36:16.804Z,1234.00
2023-04-12T03:37:16.894Z,1213.00
2023-04-12T03:38:16.894Z,1234.00
2023-04-12T03:39:16.943Z,1266.00
2023-04-12T03:40:17.018Z,1258.00
2023-04-12T03:41:17.057Z,1296.00
2023-04-12T03:42:29.881Z,1390.00
2023-04-12T03:43:18.155Z,1391.00
2023-04-12T03:44:17.096Z,1367.00
2023-04-12T03:45:17.075Z,1319.00
2023-04-12T03:46:17.188Z,1338.00
2023-04-12T03:47:17.081Z,1308.00
2023-04-12T03:48:17.085Z,1287.00
2023-04-12T03:49:17.072Z,1332.00
2023-04-12T03:50:17.051Z,1309.00
2023-04-12T03:51:17.209Z,1324.00
2023-04-12T03:52:17.094Z,1311.00
2023-04-12T03:53:17.158Z,1254.00
2023-04-12T03:54:17.200Z,1260.00
2023-04-12T03:55:17.260Z,1263.00
2023-04-12T03:56:17.305Z,1259.00
2023-04-12T03:57:17.342Z,1269.00
2023-04-12T03:58:17.390Z,1281.00
2023-04-12T03:59:17.451Z,1310.00
2023-04-12T04:00:17.514Z,1285.00
2023-04-12T04:01:17.585Z,1271.00
2023-04-12T04:02:17.655Z,1252.00
2023-04-12T04:03:17.766Z,1228.00
2023-04-12T04:04:17.932Z,1250.00
2023-04-12T04:05:17.989Z,1214.00
2023-04-12T04:06:17.843Z,1246.00
2023-04-12T04:07:17.906Z,1272.00
2023-04-12T04:08:18.048Z,1225.00
2023-04-12T04:09:17.987Z,1230.00
2023-04-12T04:10:18.058Z,1275.00
2023-04-12T04:11:18.109Z,1277.00
2023-04-12T04:12:18.155Z,1251.00
2023-04-12T04:13:18.216Z,1298.00
2023-04-12T04:14:18.255Z,1286.00
2023-04-12T04:15:18.311Z,1314.00
2023-04-12T04:16:18.413Z,1325.00
2023-04-12T04:17:18.553Z,1333.00
2023-04-12T04:18:18.502Z,1335.00
2023-04-12T04:19:18.551Z,1352.00
2023-04-12T04:20:18.598Z,1360.00
2023-04-12T04:21:18.672Z,1402.00
2023-04-12T04:22:18.719Z,1410.00
2023-04-12T04:23:18.788Z,1385.00
2023-04-12T04:24:18.860Z,1449.00
2023-04-12T04:25:18.894Z,1425.00
2023-04-12T04:26:18.946Z,1406.00
2023-04-12T04:27:19.042Z,1417.00
2023-04-12T04:28:19.062Z,1463.00
2023-04-12T04:29:19.124Z,1461.00
2023-04-12T04:30:19.297Z,1454.00
2023-04-12T04:31:19.297Z,1445.00
2023-04-12T04:32:19.666Z,1488.00
2023-04-12T04:33:19.361Z,1488.00
2023-04-12T04:34:19.449Z,1520.00
2023-04-12T04:35:19.482Z,1482.00
2023-04-12T04:36:19.536Z,1506.00
2023-04-12T04:37:19.661Z,1519.00
2023-04-12T04:38:19.656Z,1528.00
2023-04-12T04:39:19.704Z,1560.00
2023-04-12T04:40:19.773Z,1511.00
2023-04-12T04:41:19.835Z,1492.00
2023-04-12T04:42:19.901Z,1528.00
2023-04-12T04:43:19.928Z,1553.00
2023-04-12T04:44:19.998Z,1551.00
2023-04-12T04:45:20.048Z,1544.00
2023-04-12T04:46:20.224Z,1540.00
2023-04-12T04:47:20.154Z,1541.00
2023-04-12T04:48:20.207Z,1541.00
2023-04-12T04:49:20.280Z,1525.00
2023-04-12T04:50:20.323Z,1534.00
2023-04-12T04:51:20.399Z,1521.00
2023-04-12T04:52:20.474Z,1558.00
2023-04-12T04:53:20.486Z,1490.00
2023-04-12T04:54:20.546Z,1531.00
2023-04-12T04:55:20.631Z,1553.00
2023-04-12T04:56:20.672Z,1501.00
2023-04-12T04:57:20.723Z,1502.00
2023-04-12T04:58:20.773Z,1550.00
2023-04-12T04:59:20.836Z,1522.00
2023-04-12T05:00:20.885Z,1566.00
2023-04-12T05:01:20.977Z,1539.00
2023-04-12T05:02:21.040Z,1575.00
2023-04-12T05:03:21.143Z,1548.00
2023-04-12T05:04:21.142Z,1559.00
2023-04-12T05:05:21.151Z,1559.00
2023-04-12T05:06:21.218Z,1575.00
2023-04-12T05:07:21.290Z,1600.00
2023-04-12T05:08:21.311Z,1596.00
2023-04-12T05:09:21.367Z,1631.00
2023-04-12T05:10:21.446Z,1620.00
2023-04-12T05:11:21.623Z,1604.00
2023-04-12T05:12:21.570Z,1630.00
2023-04-12T05:13:21.612Z,1617.00
2023-04-12T05:14:23.345Z,1650.00
2023-04-12T05:15:21.699Z,1621.00
2023-04-12T05:16:21.805Z,1624.00
2023-04-12T05:17:21.828Z,1698.00
2023-04-12T05:18:22.197Z,1695.00
2023-04-12T05:19:21.910Z,1678.00
2023-04-12T05:20:21.966Z,1710.00
2023-04-12T05:21:24.109Z,1694.00
2023-04-12T05:22:22.103Z,1719.00
2023-04-12T05:23:22.154Z,1709.00
2023-04-12T05:24:22.187Z,1713.00
2023-04-12T05:25:22.233Z,1732.00
2023-04-12T05:26:22.291Z,1718.00
2023-04-12T05:27:22.334Z,1704.00
2023-04-12T05:28:22.672Z,1704.00
2023-04-12T05:29:22.427Z,1752.00
2023-04-12T05:30:22.473Z,1726.00
2023-04-12T05:31:22.653Z,1823.00
2023-04-12T05:32:22.551Z,1799.00
2023-04-12T05:33:22.624Z,1851.00
2023-04-12T05:34:22.616Z,1894.00
2023-04-12T05:35:22.792Z,1845.00
2023-04-12T05:36:23.190Z,1859.00
2023-04-12T05:37:22.718Z,1884.00
2023-04-12T05:38:23.168Z,1939.00
2023-04-12T05:39:22.793Z,1962.00
2023-04-12T05:40:22.835Z,1924.00
2023-04-12T05:41:22.883Z,1946.00
2023-04-12T05:42:22.905Z,1970.00
2023-04-12T05:43:23.018Z,2004.00
2023-04-12T05:44:22.953Z,2047.00
2023-04-12T05:45:22.977Z,2088.00
2023-04-12T05:46:23.063Z,2110.00
2023-04-12T05:47:23.100Z,2128.00
2023-04-12T05:48:23.058Z,2136.00
2023-04-12T05:49:23.074Z,2164.00
2023-04-12T05:50:23.096Z,2182.00
2023-04-12T05:51:34.066Z,2219.00
2023-04-12T05:52:24.097Z,2221.00
2023-04-12T05:53:23.117Z,2228.00
2023-04-12T05:54:23.081Z,2243.00
2023-04-12T05:55:23.062Z,2268.00
2023-04-12T05:56:23.093Z,2309.00
2023-04-12T05:57:23.074Z,2356.00
2023-04-12T05:58:23.059Z,2356.00
2023-04-12T05:59:23.080Z,2387.00
2023-04-12T06:00:23.030Z,2414.00
2023-04-12T06:01:23.053Z,2429.00
2023-04-12T06:02:23.297Z,2441.00
2023-04-12T06:03:23.263Z,2449.00
2023-04-12T06:04:25.164Z,2463.00
2023-04-12T06:05:24.029Z,2465.00
2023-04-12T06:06:22.975Z,2469.00
2023-04-12T06:07:23.171Z,2480.00
2023-04-12T06:08:22.987Z,2479.00
2023-04-12T06:09:22.955Z,2511.00
2023-04-12T06:10:22.943Z,2501.00
2023-04-12T06:11:22.947Z,2517.00
2023-04-12T06:12:22.951Z,2519.00
2023-04-12T06:13:22.990Z,2522.00
2023-04-12T06:14:23.032Z,2538.00
2023-04-12T06:15:23.135Z,2528.00
2023-04-12T06:16:23.218Z,2533.00
2023-04-12T06:17:23.254Z,2556.00
2023-04-12T06:18:23.298Z,2565.00
2023-04-12T06:19:23.354Z,2580.00
2023-04-12T06:20:23.421Z,2575.00
2023-04-12T06:21:23.480Z,2568.00
2023-04-12T06:22:23.546Z,2576.00
2023-04-12T06:23:23.585Z,2572.00
2023-04-12T06:24:23.619Z,2590.00
2023-04-12T06:25:23.701Z,2566.00
2023-04-12T06:26:23.743Z,2586.00
2023-04-12T06:27:23.790Z,2581.00
2023-04-12T06:28:23.869Z,2594.00
2023-04-12T06:29:23.890Z,2591.00
2023-04-12T06:30:23.960Z,2590.00
2023-04-12T06:31:24.021Z,2587.00
2023-04-12T06:32:24.054Z,2561.00
2023-04-12T06:33:24.118Z,2555.00
2023-04-12T06:34:24.138Z,2573.00
2023-04-12T06:35:24.203Z,2587.00
2023-04-12T06:36:24.213Z,2598.00
2023-04-12T06:37:24.255Z,2626.00
2023-04-12T06:38:24.310Z,2634.00
2023-04-12T06:39:24.354Z,2623.00
2023-04-12T06:40:24.412Z,2639.00
2023-04-12T06:41:24.430Z,2644.00
2023-04-12T06:42:24.560Z,2665.00
2023-04-12T06:43:24.517Z,2656.00
2023-04-12T06:44:24.585Z,2658.00
2023-04-12T06:45:24.612Z,2652.00
2023-04-12T06:46:24.675Z,2649.00
2023-04-12T06:47:25.274Z,2641.00
2023-04-12T06:48:24.756Z,2651.00
2023-04-12T06:49:24.770Z,2662.00
2023-04-12T06:50:24.841Z,2682.00
2023-04-12T06:51:24.861Z,2699.00
2023-04-12T06:52:25.147Z,2712.00
2023-04-12T06:53:24.925Z,2731.00
2023-04-12T06:54:24.960Z,2734.00
2023-04-12T06:55:24.969Z,2741.00
2023-04-12T06:56:25.000Z,2785.00
2023-04-12T06:57:25.085Z,2807.00
2023-04-12T06:58:25.104Z,2819.00
2023-04-12T06:59:25.106Z,2836.00
2023-04-12T07:00:25.164Z,2841.00
2023-04-12T07:01:25.271Z,2864.00
2023-04-12T07:02:25.277Z,2883.00
2023-04-12T07:03:25.470Z,2885.00
2023-04-12T07:04:25.314Z,2910.00
2023-04-12T07:05:25.322Z,2907.00
2023-04-12T07:06:26.251Z,2899.00
2023-04-12T07:07:25.685Z,2917.00
2023-04-12T07:08:25.988Z,2941.00
2023-04-12T07:09:25.535Z,2968.00
2023-04-12T07:10:25.533Z,2956.00
2023-04-12T07:11:25.508Z,2935.00
2023-04-12T07:12:25.555Z,2904.00
2023-04-12T07:13:25.565Z,2897.00
2023-04-12T07:14:25.626Z,2883.00
2023-04-12T07:15:25.637Z,2867.00
2023-04-12T07:16:25.729Z,2836.00
2023-04-12T07:17:25.707Z,2836.00
2023-04-12T07:18:25.721Z,2840.00
2023-04-12T07:19:26.335Z,2838.00
2023-04-12T07:20:25.884Z,2826.00
2023-04-12T07:21:25.809Z,2836.00
2023-04-12T07:22:25.858Z,2829.00
2023-04-12T07:23:25.871Z,2821.00
2023-04-12T07:24:25.898Z,2827.00
2023-04-12T07:25:25.912Z,2817.00
2023-04-12T07:26:25.952Z,2822.00
2023-04-12T07:27:26.009Z,2752.00
2023-04-12T07:28:26.019Z,2732.00
2023-04-12T07:29:26.046Z,2723.00
2023-04-12T07:30:26.230Z,2667.00
2023-04-12T07:31:26.130Z,2659.00
2023-04-12T07:32:26.182Z,2724.00
2023-04-12T07:33:26.238Z,2720.00
2023-04-12T07:34:26.322Z,2733.00
2023-04-12T07:35:26.176Z,2695.00
2023-04-12T07:36:26.195Z,2659.00
2023-04-12T07:37:26.213Z,2717.00
2023-04-12T07:38:26.224Z,2718.00
2023-04-12T07:39:26.261Z,2716.00
2023-04-12T07:40:26.268Z,2724.00
2023-04-12T07:41:26.270Z,2724.00
2023-04-12T07:42:26.297Z,2720.00
2023-04-12T07:43:26.324Z,2658.00
2023-04-12T07:44:26.333Z,2689.00
2023-04-12T07:45:26.362Z,2727.00
2023-04-12T07:46:26.404Z,2705.00
2023-04-12T07:47:26.369Z,2670.00
2023-04-12T07:48:26.397Z,2133.00
2023-04-12T07:49:26.435Z,1937.00
2023-04-12T07:50:26.455Z,1719.00
2023-04-12T07:51:26.619Z,1505.00
2023-04-12T07:52:26.548Z,1345.00
2023-04-12T07:53:26.690Z,1292.00
2023-04-12T07:54:26.625Z,1122.00
2023-04-12T07:55:26.606Z,1087.00
2023-04-12T07:56:26.619Z,1072.00
2023-04-12T07:57:26.636Z,961.00
2023-04-12T07:58:26.672Z,877.00
2023-04-12T07:59:26.685Z,776.00
2023-04-12T08:00:26.731Z,766.00
2023-04-12T08:01:26.754Z,647.00
2023-04-12T08:02:26.969Z,620.00
2023-04-12T08:03:26.906Z,643.00
2023-04-12T08:04:27.016Z,635.00
2023-04-12T08:05:26.919Z,654.00
2023-04-12T08:06:30.511Z,735.00
2023-04-12T08:07:27.293Z,737.00
2023-04-12T08:08:26.960Z,752.00
2023-04-12T08:09:26.953Z,784.00
2023-04-12T08:10:26.949Z,910.00
2023-04-12T08:11:26.925Z,1109.00
2023-04-12T08:12:26.942Z,1181.00
2023-04-12T08:13:26.898Z,1291.00
2023-04-12T08:14:26.891Z,1295.00
2023-04-12T08:15:26.909Z,1418.00
2023-04-12T08:16:26.908Z,1444.00
2023-04-12T08:17:26.918Z,1454.00
2023-04-12T08:18:26.876Z,1510.00
2023-04-12T08:19:27.240Z,1503.00
2023-04-12T08:20:26.881Z,1533.00
2023-04-12T08:21:26.841Z,1577.00
2023-04-12T08:22:27.260Z,1586.00
2023-04-12T08:23:26.855Z,1045.00
2023-04-12T08:24:26.845Z,750.00
2023-04-12T08:25:26.868Z,647.00
2023-04-12T08:26:26.859Z,880.00
2023-04-12T08:27:26.864Z,1195.00
2023-04-12T08:28:26.803Z,1324.00
2023-04-12T08:29:26.817Z,1460.00
2023-04-12T08:30:26.800Z,1475.00
2023-04-12T08:31:26.845Z,1600.00
2023-04-12T08:32:26.807Z,1646.00
2023-04-12T08:33:26.913Z,1732.00
2023-04-12T08:34:26.831Z,1809.00
2023-04-12T08:35:26.893Z,1860.00
2023-04-12T08:36:26.832Z,1923.00
2023-04-12T08:37:26.821Z,2017.00
2023-04-12T08:38:41.321Z,2069.00
2023-04-12T08:39:27.827Z,2072.00
2023-04-12T08:40:26.827Z,2083.00
2023-04-12T08:41:26.816Z,2115.00
2023-04-12T08:42:26.839Z,2171.00
2023-04-12T08:43:26.799Z,2246.00
2023-04-12T08:44:26.787Z,2257.00
2023-04-12T08:45:26.794Z,2261.00
2023-04-12T08:46:26.793Z,2271.00
2023-04-12T08:47:26.800Z,2273.00
2023-04-12T08:48:26.780Z,2290.00
2023-04-12T08:49:26.848Z,2289.00
2023-04-12T08:50:26.887Z,2267.00
2023-04-12T08:51:26.914Z,2271.00
2023-04-12T08:52:26.935Z,2297.00
2023-04-12T08:53:26.987Z,2306.00
2023-04-12T08:54:26.995Z,2315.00
2023-04-12T08:55:27.070Z,2333.00
2023-04-12T08:56:27.067Z,2359.00
2023-04-12T08:57:27.104Z,2381.00
2023-04-12T08:58:27.175Z,2400.00
2023-04-12T08:59:27.146Z,2383.00
2023-04-12T09:00:27.149Z,2364.00
2023-04-12T09:01:27.187Z,2342.00
2023-04-12T09:02:27.425Z,2358.00
2023-04-12T09:03:27.418Z,2368.00
2023-04-12T09:04:27.312Z,2345.00
2023-04-12T09:05:27.342Z,2356.00
2023-04-12T09:06:27.224Z,2355.00
2023-04-12T09:07:27.234Z,2385.00
2023-04-12T09:08:27.779Z,2406.00
2023-04-12T09:09:27.267Z,2374.00
2023-04-12T09:10:27.754Z,2348.00
2023-04-12T09:11:27.296Z,2341.00
2023-04-12T09:12:27.366Z,2352.00
2023-04-12T09:13:27.263Z,2347.00
2023-04-12T09:14:27.284Z,2374.00
2023-04-12T09:15:27.269Z,2382.00
2023-04-12T09:16:27.291Z,2402.00
2023-04-12T09:17:27.308Z,2392.00
2023-04-12T09:18:27.256Z,2373.00
2023-04-12T09:19:27.257Z,2375.00
2023-04-12T09:20:27.271Z,2342.00
2023-04-12T09:21:27.259Z,2327.00
2023-04-12T09:22:27.271Z,2362.00
2023-04-12T09:23:27.287Z,2353.00
2023-04-12T09:24:27.305Z,2332.00
2023-04-12T09:25:27.767Z,2356.00
2023-04-12T09:26:27.373Z,2230.00
2023-04-12T09:27:27.416Z,2226.00
2023-04-12T09:28:27.369Z,2217.00
2023-04-12T09:29:27.378Z,2273.00
2023-04-12T09:30:27.747Z,2204.00
2023-04-12T09:31:27.381Z,2238.00
2023-04-12T09:32:27.452Z,2213.00
2023-04-12T09:33:27.390Z,2284.00
2023-04-12T09:34:28.076Z,2302.00
2023-04-12T09:35:27.389Z,2290.00
2023-04-12T09:36:27.427Z,2271.00
2023-04-12T09:37:27.389Z,2265.00
2023-04-12T09:38:27.387Z,2224.00
2023-04-12T09:39:27.386Z,2148.00
2023-04-12T09:40:27.367Z,2091.00
2023-04-12T09:41:27.594Z,2071.00
2023-04-12T09:42:33.901Z,2057.00
2023-04-12T09:43:28.355Z,2057.00
2023-04-12T09:44:27.347Z,2019.00
2023-04-12T09:45:27.335Z,1993.00
2023-04-12T09:46:27.377Z,1970.00
2023-04-12T09:47:27.351Z,1979.00
2023-04-12T09:48:27.322Z,1986.00
2023-04-12T09:49:27.322Z,1952.00
2023-04-12T09:50:27.767Z,1867.00
2023-04-12T09:51:27.310Z,1890.00
2023-04-12T09:52:27.300Z,1876.00
2023-04-12T09:53:27.296Z,1853.00
2023-04-12T09:54:27.304Z,1834.00
2023-04-12T09:55:27.314Z,1835.00
2023-04-12T09:56:27.272Z,1858.00
2023-04-12T09:57:27.264Z,1840.00
2023-04-12T09:58:27.628Z,1834.00
2023-04-12T09:59:27.365Z,1822.00
2023-04-12T10:00:27.305Z,1810.00
2023-04-12T10:01:27.310Z,1841.00
2023-04-12T10:02:27.405Z,1808.00
2023-04-12T10:03:27.403Z,1793.00
2023-04-12T10:04:27.401Z,1781.00
2023-04-12T10:05:28.112Z,1726.00
2023-04-12T10:06:27.180Z,1726.00
2023-04-12T10:07:27.208Z,1706.00
2023-04-12T10:08:27.189Z,1724.00
2023-04-12T10:09:27.217Z,1732.00
2023-04-12T10:10:27.270Z,1707.00
2023-04-12T10:11:27.172Z,1682.00
2023-04-12T10:12:27.180Z,1705.00
2023-04-12T10:13:27.272Z,1684.00
2023-04-12T10:14:27.145Z,1650.00
2023-04-12T10:15:27.164Z,1642.00
2023-04-12T10:16:27.279Z,1612.00
2023-04-12T10:17:27.156Z,1590.00
2023-04-12T10:18:27.179Z,1593.00
2023-04-12T10:19:27.212Z,1512.00
2023-04-12T10:20:29.476Z,1496.00
2023-04-12T10:21:27.372Z,1585.00
2023-04-12T10:22:27.371Z,1311.00
2023-04-12T10:23:27.505Z,1270.00
2023-04-12T10:24:27.442Z,1094.00
2023-04-12T10:25:27.493Z,864.00
2023-04-12T10:26:27.544Z,722.00
2023-04-12T10:27:27.626Z,644.00
2023-04-12T10:28:27.690Z,577.00
2023-04-12T10:29:27.729Z,506.00
2023-04-12T10:30:27.761Z,501.00
2023-04-12T10:31:27.809Z,500.00
2023-04-12T10:32:27.755Z,510.00
2023-04-12T10:33:27.774Z,506.00
2023-04-12T10:34:27.757Z,504.00
2023-04-12T10:35:27.784Z,502.00
2023-04-12T10:36:27.847Z,500.00
2023-04-12T10:37:27.906Z,490.00
2023-04-12T10:38:27.799Z,500.00
2023-04-12T10:39:27.850Z,500.00
2023-04-12T10:40:27.860Z,545.00
2023-04-12T10:41:28.300Z,585.00
2023-04-12T10:42:28.016Z,544.00
2023-04-12T10:43:28.312Z,526.00
2023-04-12T10:44:28.009Z,534.00
2023-04-12T10:45:28.085Z,529.00
2023-04-12T10:46:28.116Z,517.00
2023-04-12T10:47:28.212Z,507.00
2023-04-12T10:48:28.270Z,500.00
2023-04-12T10:49:28.224Z,512.00
2023-04-12T10:50:28.216Z,523.00
2023-04-12T10:51:28.256Z,514.00
2023-04-12T10:52:28.268Z,506.00
2023-04-12T10:53:28.344Z,514.00
2023-04-12T10:54:28.360Z,518.00
2023-04-12T10:55:28.363Z,516.00
2023-04-12T10:56:30.181Z,529.00
2023-04-12T10:57:28.392Z,547.00
2023-04-12T10:58:28.450Z,556.00
2023-04-12T10:59:41.066Z,548.00
2023-04-12T11:00:29.458Z,549.00
2023-04-12T11:01:28.833Z,553.00
2023-04-12T11:02:28.447Z,551.00
2023-04-12T11:03:28.467Z,544.00
2023-04-12T11:04:28.419Z,527.00
2023-04-12T11:05:28.426Z,504.00
2023-04-12T11:06:28.333Z,500.00
2023-04-12T11:07:28.320Z,510.00
2023-04-12T11:08:28.361Z,541.00
2023-04-12T11:09:28.353Z,548.00
2023-04-12T11:10:28.367Z,571.00
2023-04-12T11:11:28.829Z,564.00
2023-04-12T11:12:28.378Z,580.00
2023-04-12T11:13:28.416Z,661.00
2023-04-12T11:14:28.507Z,576.00
2023-04-12T11:15:30.312Z,435.00
2023-04-12T11:16:28.863Z,400.00
2023-04-12T11:17:28.661Z,421.00
2023-04-12T11:18:28.861Z,484.00
2023-04-12T11:19:28.587Z,498.00
2023-04-12T11:20:28.672Z,498.00
2023-04-12T11:21:28.791Z,517.00
2023-04-12T11:22:28.698Z,502.00
2023-04-12T11:23:28.727Z,509.00
2023-04-12T11:24:28.756Z,506.00
2023-04-12T11:25:28.833Z,510.00
2023-04-12T11:26:28.831Z,504.00
2023-04-12T11:27:28.895Z,510.00
2023-04-12T11:28:31.092Z,516.00
2023-04-12T11:29:28.857Z,509.00
2023-04-12T11:30:28.840Z,507.00
2023-04-12T11:31:28.893Z,518.00
2023-04-12T11:32:28.856Z,533.00
2023-04-12T11:33:28.827Z,514.00
2023-04-12T11:34:28.827Z,516.00
2023-04-12T11:35:28.812Z,500.00
2023-04-12T11:36:28.831Z,504.00
2023-04-12T11:37:28.829Z,515.00
2023-04-12T11:38:28.801Z,506.00
2023-04-12T11:39:30.478Z,521.00
2023-04-12T11:40:28.864Z,539.00
2023-04-12T11:41:28.881Z,543.00
2023-04-12T11:42:28.914Z,546.00
2023-04-12T11:43:28.956Z,546.00
2023-04-12T11:44:31.834Z,562.00
2023-04-12T11:45:29.974Z,563.00
2023-04-12T11:46:28.999Z,534.00
2023-04-12T11:47:28.984Z,507.00
2023-04-12T11:48:28.936Z,512.00
2023-04-12T11:49:28.922Z,498.00
2023-04-12T11:50:28.911Z,517.00
2023-04-12T11:51:31.554Z,501.00
2023-04-12T11:52:28.883Z,500.00
2023-04-12T11:53:28.881Z,506.00
2023-04-12T11:54:28.877Z,511.00
2023-04-12T11:55:28.869Z,509.00
2023-04-12T11:56:28.891Z,500.00
2023-04-12T11:57:28.935Z,501.00
2023-04-12T11:58:28.861Z,509.00
2023-04-12T11:59:28.837Z,525.00
2023-04-12T12:00:28.839Z,509.00
2023-04-12T12:01:28.832Z,497.00
2023-04-12T12:02:33.066Z,505.00
2023-04-12T12:03:29.969Z,502.00
2023-04-12T12:04:29.005Z,505.00
2023-04-12T12:05:29.050Z,506.00
2023-04-12T12:06:29.485Z,497.00
2023-04-12T12:07:28.900Z,502.00
2023-04-12T12:08:28.777Z,510.00
2023-04-12T12:09:28.770Z,518.00